• Join FlightAware (Why Join?)
  • Login
  • US Flag 
02:42AM EDT


 

Airport Tracker/Info


-or-


 

Live Flight TrackerFlight Track Log ✈ ASQ5958 ✈ 26-Jun-2013 ✈ KDTW - KORD

Flight Track Log - Related Links

Times and Time Zones

All times are in EDT time to prevent confusion due to time zone crossing. See the ASQ5958 flight status page for this flight to view local times or setup timezone preferences in your user account.

Time Position Orientation Groundspeed Altitude Reporting Facility
EDT Latitude Longitude Course Direction KTS MPH feet Rate Location/Type
11:00AM 42.2008 -83.3889 225° Southwest 160 184 1,300  Level Cleveland Center
11:02AM 42.1447 -83.4650 225° Southwest 230 265 3,600 1,800 Climbing Cleveland Center
11:03AM 42.0908 -83.5353 224° Southwest 248 285 5,900 1,920 Climbing Cleveland Center
11:04AM 42.0719 -83.6156 252° West 259 298 7,800 1,800 Climbing Cleveland Center
11:05AM 42.1417 -83.6608 334° Northwest 277 319 9,600 1,380 Climbing Cleveland Center
11:05AM 42.1706 -83.6792 335° Northwest 295 339 10,000 540 Climbing Cleveland Center
11:06AM 42.2756 -83.7264 342° North 341 392 10,500 1,020 Climbing Cleveland Center
11:07AM 42.3622 -83.6772 23° Northeast 330 380 12,100 1,200 Climbing Cleveland Center
11:08AM 42.4406 -83.6333 22° Northeast 347 399 13,000 1,020 Climbing Cleveland Center
11:09AM 42.5336 -83.5814 22° Northeast 347 399 14,200 1,200 Climbing Cleveland Center
11:10AM 42.6247 -83.5292 23° Northeast 352 405 15,500 1,260 Climbing Cleveland Center
11:11AM 42.7178 -83.4769 22° Northeast 352 405 16,800 1,140 Climbing Cleveland Center
11:12AM 42.8086 -83.4247 23° Northeast 352 405 17,800 960 Climbing Cleveland Center
11:13AM 42.9036 -83.3750 21° North 358 412 18,800 960 Climbing Cleveland Center
11:14AM 43.0058 -83.3683 North 358 412 19,800 960 Climbing Cleveland Center
11:15AM 43.1075 -83.3900 351° North 358 412 20,800 900 Climbing Cleveland Center
11:16AM 43.1997 -83.4511 334° Northwest 358 412 21,700 840 Climbing Cleveland Center
11:17AM 43.2964 -83.5128 335° Northwest 366 421 22,500 780 Climbing Cleveland Center
11:18AM 43.3886 -83.5742 334° Northwest 371 427 23,300 720 Climbing Cleveland Center
11:19AM 43.4639 -83.6264 333° Northwest 374 430 23,900 360 Climbing Minneapolis Center
11:20AM 43.5222 -83.7453 304° West 384 442 24,000  Climbing Minneapolis Center
11:21AM 43.5583 -83.8892 289° West 396 456 24,000  Level Minneapolis Center
11:22AM 43.5975 -84.0378 290° West 408 470 24,000  Level Minneapolis Center
11:23AM 43.6347 -84.1906 289° West 418 481 24,000  Level Minneapolis Center
11:25AM 43.6825 -84.3756 290° West 425 489 24,000  Level Minneapolis Center
11:26AM 43.7206 -84.5325 289° West 431 496 24,000  Level Minneapolis Center
11:27AM 43.7519 -84.6572 289° West 431 496 24,000  Level Minneapolis Center
11:28AM 43.7978 -84.8478 288° West 436 502 24,000  Level Minneapolis Center
11:29AM 43.8369 -85.0061 289° West 437 503 24,000  Level Minneapolis Center
11:30AM 43.8836 -85.1986 289° West 439 505 24,000  Level Minneapolis Center
11:31AM 43.9231 -85.3597 289° West 442 509 24,000  Level Minneapolis Center
11:32AM 43.9608 -85.5203 288° West 443 510 24,000  Level Minneapolis Center
11:33AM 43.9986 -85.6794 288° West 441 507 24,000  Level Minneapolis Center
11:34AM 44.0356 -85.8397 288° West 436 502 24,000  Level Minneapolis Center
11:35AM 44.0797 -86.0292 288° West 438 504 24,000  Level Minneapolis Center
11:36AM 44.1183 -86.1958 288° West 440 506 24,000  Level Minneapolis Center
11:37AM 44.1544 -86.3578 287° West 439 505 24,000  Level Minneapolis Center
11:38AM 44.1919 -86.5208 288° West 439 505 24,000  Level Minneapolis Center
11:39AM 44.2292 -86.6853 288° West 444 511 24,000  Level Minneapolis Center
11:40AM 44.2658 -86.8483 287° West 441 507 24,000 -780 Level Minneapolis Center
11:41AM 44.3031 -87.0136 288° West 445 512 22,400 -1,020 Descending Minneapolis Center
11:42AM 44.3458 -87.2117 287° West 443 510 22,000 -180 Descending Minneapolis Center
11:43AM 44.3886 -87.4061 287° West 444 511 22,000  Level Minneapolis Center
11:44AM 44.4000 -87.5736 275° West 444 511 22,000  Level Minneapolis Center
11:45AM 44.3144 -87.6842 223° Southwest 437 503 22,000  Level Minneapolis Center
11:46AM 44.1997 -87.7414 200° South 434 499 22,000  Level Minneapolis Center
11:47AM 44.1236 -87.7800 200° South 437 503 22,000  Level Chicago Center
11:48AM 44.0094 -87.8389 200° South 437 503 22,000 -480 Level Chicago Center
11:49AM 43.9317 -87.8750 198° South 436 502 21,300 -2,700 Descending Minneapolis Center
11:50AM 43.8233 -87.9281 199° South 418 481 17,600 -3,000 Descending Minneapolis Center
11:51AM 43.7192 -87.9800 200° South 402 463 15,200 -1,800 Descending Minneapolis Center
11:52AM 43.5986 -88.0392 200° South 392 451 14,000 -900 Descending Minneapolis Center
11:53AM 43.4961 -88.0892 199° South 388 447 13,400 -540 Descending Minneapolis Center
11:54AM 43.4083 -88.1158 192° South 387 445 12,900 -300 Descending Minneapolis Center
11:55AM 43.2822 -88.1108 178° South 385 443 12,800 -840 Descending Minneapolis Center
11:56AM 43.1961 -88.1036 177° South 373 429 11,200 -1,200 Descending Minneapolis Center
11:57AM 43.1167 -88.1000 178° South 370 426 10,900 -240 Descending KMKE
11:57AM 43.0256 -88.1025 181° South 370 426 10,900  Level Chicago Center
11:58AM 42.9264 -88.1458 198° South 372 428 10,900 -120 Level Chicago Center
11:59AM 42.8381 -88.1864 199° South 340 391 10,700 -840 Descending Chicago Center
12:00PM 42.7625 -88.2181 197° South 288 331 9,200 -1,320 Descending Chicago Center
12:02PM 42.6922 -88.2258 185° South 261 300 8,000 -540 Descending Chicago Center
12:03PM 42.6178 -88.2217 178° South 267 307 8,100  Climbing Chicago Center
12:04PM 42.5414 -88.2169 177° South 273 314 8,000 -60 Descending Chicago Center
12:05PM 42.4522 -88.2136 178° South 274 315 8,000 -540 Level Chicago Center
12:06PM 42.3794 -88.2119 179° South 265 305 7,000 -540 Descending Chicago Center
12:07PM 42.3061 -88.2089 178° South 263 303 7,000  Level Chicago Center
12:08PM 42.2431 -88.2092 180° South 232 267 7,000 -480 Level Chicago Center
12:09PM 42.1975 -88.1692 147° Southeast 200 230 6,100 -960 Descending Chicago Center
12:10PM 42.1550 -88.1206 140° Southeast 199 229 5,000 -960 Descending Chicago Center
12:10PM 42.1167 -88.0833 144° Southeast 165 190 4,500 -900 Descending Chicago TRACON
12:11PM 42.1000 -88.0500 124° Southeast 157 181 3,600 -1,020 Descending Chicago TRACON